^^
Grace C. Lehan Memorial Weather Station Historical Data
Daily Summary for March 30, 2021 Units:  Metric    English   Both
Daily Weekly Monthly Yearly
  High: Low: Average:
Temperature: 15.1 °C 8.8 °C 11.9 °C
Dew Point: 14.6 °C 6.9 °C 11.3 °C
Humidity: 97% 84% 96%
Wind Speed: 3.4km/h 0km/h 0.3km/h
Wind Gust: 19.3km/h - -
Wind- - South
Pressure: 1009.7 hPa 998.9 hPa -
Precipitation: 17.27 mm    
 
 
Tabular Data for March 30, 2021
Time Temperature Dew Point Pressure Wind Wind Speed Wind Gust Humidity Rainfall Rate (Hourly) solar
00:00 9.5 °C 6.9 °C 1008.4 hPa ENE 3.2 km/h 16.1 km/h 84% 0.25 mm 0 W/m2
00:09 9.3 °C 7 °C 1008 hPa ENE 0.6 km/h 6.4 km/h 85.4% 0.25 mm 0 W/m2
00:14 9.3 °C 7.1 °C 1008 hPa NE 3.4 km/h 19.3 km/h 86% 0.51 mm 0 W/m2
00:19 9.2 °C 7 °C 1009 hPa Calm   19.3 km/h 86% 0.51 mm 0 W/m2
00:24 9.2 °C 7.1 °C 1009 hPa NE 0.5 km/h 19.3 km/h 86.9% 0.51 mm 0 W/m2
00:29 9.2 °C 7.2 °C 1009.7 hPa Calm   19.3 km/h 87% 0.76 mm 0 W/m2
00:34 9.2 °C 7.2 °C 1009.7 hPa Calm   19.3 km/h 87.6% 0.76 mm 0 W/m2
00:39 9.2 °C 7.3 °C 1009.4 hPa NE 0.2 km/h 3.2 km/h 88% 1.27 mm 0 W/m2
00:44 9.2 °C 7.4 °C 1009.4 hPa NE 1.6 km/h 6.4 km/h 88.9% 1.52 mm 0 W/m2
00:49 9.1 °C 7.4 °C 1009 hPa NE 1.3 km/h 8 km/h 89% 1.52 mm 0 W/m2
00:54 9.1 °C 7.4 °C 1008.7 hPa ENE 0.6 km/h 9.7 km/h 89.5% 1.78 mm 0 W/m2
00:59 9 °C 7.6 °C 1008.7 hPa ENE 0.2 km/h 9.7 km/h 90.7% 1.78 mm 0 W/m2
01:04 8.9 °C 7.4 °C 1008.4 hPa ENE 0.3 km/h 9.7 km/h 90.3% 1.78 mm 0 W/m2
01:09 8.9 °C 7.5 °C 1008.7 hPa ENE 0.5 km/h 4.8 km/h 91% 1.27 mm 0 W/m2
01:14 8.8 °C 7.4 °C 1008.7 hPa ENE 0.8 km/h 6.4 km/h 91% 1.27 mm 0 W/m2
01:19 8.8 °C 7.5 °C 1008.7 hPa ENE 0.5 km/h 6.4 km/h 91.2% 1.27 mm 0 W/m2
01:24 8.8 °C 7.6 °C 1008.7 hPa NE 0.8 km/h 8 km/h 92% 1.27 mm 0 W/m2
01:29 8.8 °C 7.6 °C 1008.7 hPa NE 0.2 km/h 8 km/h 92% 1.27 mm 0 W/m2
01:34 8.8 °C 7.6 °C 1008.7 hPa NE 0.2 km/h 8 km/h 92% 1.27 mm 0 W/m2
01:39 8.8 °C 7.7 °C 1008.7 hPa NE 1.3 km/h 11.3 km/h 92.3% 1.52 mm 0 W/m2
01:44 8.8 °C 7.7 °C 1008.7 hPa ENE 0.3 km/h 11.3 km/h 92.7% 1.78 mm 0 W/m2
01:49 8.8 °C 7.8 °C 1008.7 hPa NE 1.6 km/h 12.9 km/h 93% 1.78 mm 0 W/m2
01:54 8.8 °C 7.8 °C 1008.4 hPa ENE 0.2 km/h 12.9 km/h 93% 2.03 mm 0 W/m2
01:59 8.8 °C 7.8 °C 1008.4 hPa NE 2.3 km/h 12.9 km/h 93% 2.03 mm 0 W/m2
02:04 8.8 °C 7.8 °C 1008.4 hPa ENE 1.8 km/h 12.9 km/h 93% 2.03 mm 0 W/m2
02:09 8.8 °C 7.8 °C 1008 hPa ENE 1.8 km/h 9.7 km/h 93% 1.27 mm 0 W/m2
02:14 8.8 °C 7.8 °C 1008 hPa NE 0.8 km/h 9.7 km/h 93.6% 1.27 mm 0 W/m2
02:19 8.8 °C 7.9 °C 1008.4 hPa NE 0.2 km/h 9.7 km/h 94% 1.27 mm 0 W/m2
02:24 8.8 °C 7.9 °C 1008.4 hPa NE 0.3 km/h 9.7 km/h 94% 1.27 mm 0 W/m2
02:29 8.8 °C 7.9 °C 1008.4 hPa ENE 1.3 km/h 9.7 km/h 94% 1.27 mm 0 W/m2
02:34 8.8 °C 7.9 °C 1008 hPa NE 3.2 km/h 9.7 km/h 94% 1.27 mm 0 W/m2
02:39 8.8 °C 7.9 °C 1008 hPa ENE 1 km/h 9.7 km/h 94% 1.02 mm 0 W/m2
02:44 8.8 °C 7.9 °C 1008 hPa NE 0.3 km/h 9.7 km/h 94% 1.02 mm 0 W/m2
02:49 8.8 °C 7.9 °C 1008 hPa NNW 0.3 km/h 9.7 km/h 94% 1.02 mm 0 W/m2
02:54 8.8 °C 7.9 °C 1008 hPa ENE 0.5 km/h 9.7 km/h 94% 1.02 mm 0 W/m2
02:59 8.8 °C 7.9 °C 1008 hPa NE 1.4 km/h 11.3 km/h 94% 1.02 mm 0 W/m2
03:04 8.8 °C 7.9 °C 1007.7 hPa NE 0.3 km/h 11.3 km/h 94% 1.02 mm 0 W/m2
03:09 8.8 °C 7.9 °C 1007.7 hPa ENE 0.5 km/h 8 km/h 94% 0.51 mm 0 W/m2
03:14 8.8 °C 7.9 °C 1007.7 hPa ENE 1.4 km/h 8 km/h 94% 0.51 mm 0 W/m2
03:19 8.8 °C 7.9 °C 1007.3 hPa NE 1.8 km/h 9.7 km/h 94% 0.51 mm 0 W/m2
03:24 8.8 °C 7.9 °C 1007.3 hPa ENE 0.5 km/h 9.7 km/h 94.1% 0.51 mm 0 W/m2
03:29 8.8 °C 8 °C 1007.7 hPa ENE 0.6 km/h 11.3 km/h 95% 0.51 mm 0 W/m2
03:32 8.8 °C 8 °C 1007.7 hPa ENE 0.2 km/h 11.3 km/h 95% 0.51 mm 0 W/m2
04:09 8.9 °C 8.1 °C 1006.7 hPa Calm     95% 0.25 mm 0 W/m2
04:14 8.9 °C 8.1 °C 1007 hPa NW 0.8 km/h 9.7 km/h 95% 0.25 mm 0 W/m2
04:19 8.9 °C 8.1 °C 1007 hPa North 0.5 km/h 11.3 km/h 95% 0.25 mm 0 W/m2
04:24 8.9 °C 8.2 °C 1006.7 hPa NE 0.3 km/h 11.3 km/h 95% 0.25 mm 0 W/m2
04:29 8.9 °C 8.1 °C 1006.7 hPa North 1.6 km/h 11.3 km/h 95% 0.25 mm 0 W/m2
04:34 8.9 °C 8.1 °C 1006.7 hPa NNW 0.6 km/h 11.3 km/h 95% 0.25 mm 0 W/m2
04:39 8.9 °C 8.2 °C 1006.7 hPa NNW 0.2 km/h 8 km/h 95% 0 mm 0 W/m2
04:44 8.9 °C 8.2 °C 1006.7 hPa NNW 0.2 km/h 8 km/h 95% 0 mm 0 W/m2
04:49 8.9 °C 8.2 °C 1006.7 hPa NNW 0.5 km/h 9.7 km/h 95% 0 mm 0 W/m2
04:54 8.9 °C 8.2 °C 1006.7 hPa NNW 1.1 km/h 16.1 km/h 95% 0 mm 0 W/m2
04:59 8.9 °C 8.2 °C 1006.7 hPa NNW 0.5 km/h 16.1 km/h 95% 0 mm 0 W/m2
05:04 8.9 °C 8.2 °C 1006.3 hPa NNW 0.2 km/h 16.1 km/h 95% 0 mm 0 W/m2
05:09 8.9 °C 8.2 °C 1006.7 hPa NNW 0.3 km/h 4.8 km/h 95% 0 mm 0 W/m2
05:14 8.9 °C 8.2 °C 1006.7 hPa NNW 0.8 km/h 8 km/h 95% 0 mm 0 W/m2
05:19 8.9 °C 8.2 °C 1006.7 hPa NNW 1.1 km/h 9.7 km/h 95% 0 mm 0 W/m2
05:24 8.9 °C 8.2 °C 1006.7 hPa Calm   9.7 km/h 95% 0 mm 0 W/m2
05:29 9 °C 8.2 °C 1006.7 hPa NNE 0.3 km/h 9.7 km/h 95% 0 mm 0 W/m2
05:34 9 °C 8.2 °C 1006.3 hPa NNW 0.6 km/h 9.7 km/h 95% 0 mm 0 W/m2
05:39 9 °C 8.2 °C 1006.3 hPa Calm   9.7 km/h 95% 0 mm 0 W/m2
05:44 9 °C 8.2 °C 1006.3 hPa NE 0.3 km/h 9.7 km/h 95% 0 mm 0 W/m2
05:49 9 °C 8.2 °C 1006.3 hPa North 0.5 km/h 9.7 km/h 95% 0.25 mm 0 W/m2
05:54 9 °C 8.2 °C 1006.3 hPa North 0.8 km/h 11.3 km/h 95% 0.25 mm 0 W/m2
05:59 9.1 °C 8.3 °C 1006.3 hPa NW 0.5 km/h 11.3 km/h 95% 0.25 mm 0 W/m2
06:04 9.1 °C 8.3 °C 1006.3 hPa North 0.5 km/h 11.3 km/h 95% 0.25 mm 0 W/m2
06:09 9.1 °C 8.4 °C 1006.3 hPa NE 0.8 km/h 8 km/h 95.7% 0.25 mm 0 W/m2
06:14 9.1 °C 8.5 °C 1006.3 hPa Calm   8 km/h 96% 0.25 mm 0 W/m2
06:19 9.2 °C 8.6 °C 1006 hPa West 0.2 km/h 8 km/h 96% 0.25 mm 0 W/m2
06:24 9.2 °C 8.6 °C 1006 hPa North 0.2 km/h 8 km/h 96% 0.25 mm 0 W/m2
06:29 9.2 °C 8.6 °C 1006 hPa North 1.3 km/h 16.1 km/h 96% 0.25 mm 0 W/m2
06:34 9.2 °C 8.6 °C 1006 hPa NNW 0.3 km/h 16.1 km/h 96% 0.25 mm 0 W/m2
06:39 9.2 °C 8.6 °C 1006 hPa NW 0.3 km/h 14.5 km/h 96% 0.25 mm 0 W/m2
06:44 9.3 °C 8.7 °C 1005.6 hPa NNW 1.8 km/h 19.3 km/h 96% 0.51 mm 0 W/m2
06:49 9.3 °C 8.7 °C 1005.6 hPa NE 2.3 km/h 19.3 km/h 96% 0.51 mm 0 W/m2
06:54 9.3 °C 8.7 °C 1005.6 hPa NNW 1.3 km/h 19.3 km/h 96% 0.51 mm 0 W/m2
06:59 9.3 °C 8.7 °C 1005.3 hPa Calm   19.3 km/h 96% 0.51 mm 0 W/m2
07:04 9.3 °C 8.7 °C 1005.3 hPa NE 0.2 km/h 19.3 km/h 96% 0.51 mm 0 W/m2
07:09 9.3 °C 8.7 °C 1005.3 hPa NE 0.5 km/h 6.4 km/h 96% 0.25 mm 0 W/m2
07:14 9.4 °C 8.8 °C 1005.3 hPa NNE 0.2 km/h 6.4 km/h 96% 0.25 mm 0 W/m2
07:19 9.4 °C 8.8 °C 1005.3 hPa North 1.4 km/h 9.7 km/h 96% 0.25 mm 0 W/m2
07:24 9.4 °C 8.8 °C 1005.3 hPa NW 0.8 km/h 9.7 km/h 96% 0.25 mm 0 W/m2
07:29 9.4 °C 8.8 °C 1005.3 hPa NW 1 km/h 9.7 km/h 96% 0.25 mm 0 W/m2
07:34 9.5 °C 8.9 °C 1005.6 hPa NNW 1.3 km/h 9.7 km/h 96% 0.51 mm 0 W/m2
07:39 9.5 °C 8.9 °C 1005.6 hPa NNW 1.3 km/h 9.7 km/h 96% 0.51 mm 0 W/m2
07:44 9.6 °C 8.9 °C 1006 hPa WNW 0.2 km/h 9.7 km/h 96% 0.51 mm 0 W/m2
07:49 9.6 °C 9 °C 1006 hPa NW 0.5 km/h 9.7 km/h 96% 0.76 mm 0 W/m2
07:54 9.6 °C 9 °C 1006 hPa North 0.8 km/h 9.7 km/h 96% 0.76 mm 0 W/m2
07:59 9.7 °C 9.1 °C 1006 hPa Calm   9.7 km/h 96% 0.76 mm 9 W/m2
08:09 9.8 °C 9.2 °C 1005.6 hPa NW 1 km/h 6.4 km/h 96% 0.76 mm 11 W/m2
08:14 9.8 °C 9.2 °C 1005.6 hPa NW 1.6 km/h 16.1 km/h 96% 0.76 mm 7 W/m2
08:19 9.8 °C 9.2 °C 1005.6 hPa NW 0.8 km/h 16.1 km/h 96% 1.02 mm 16 W/m2
08:24 9.8 °C 9.2 °C 1006 hPa NW 1.1 km/h 16.1 km/h 96% 1.02 mm 21 W/m2
08:29 9.9 °C 9.3 °C 1006 hPa West 0.5 km/h 16.1 km/h 96% 1.02 mm 16 W/m2
08:34 9.9 °C 9.3 °C 1006 hPa Calm   16.1 km/h 96% 1.02 mm 21 W/m2
08:39 9.9 °C 9.3 °C 1006 hPa WNW 0.2 km/h 6.4 km/h 96% 0.76 mm 21 W/m2
08:44 9.9 °C 9.3 °C 1006 hPa Calm   6.4 km/h 96% 1.27 mm 26 W/m2
08:49 10 °C 9.4 °C 1006.3 hPa Calm   6.4 km/h 96% 1.27 mm 26 W/m2
08:54 10.1 °C 9.4 °C 1006 hPa Calm   6.4 km/h 96% 1.27 mm 37 W/m2
08:59 10.1 °C 9.5 °C 1006 hPa Calm   6.4 km/h 96% 1.27 mm 95 W/m2
09:04 10.2 °C 9.6 °C 1006.3 hPa Calm   6.4 km/h 96% 1.27 mm 37 W/m2
09:09 10.2 °C 9.6 °C 1006.7 hPa Calm   1.6 km/h 96% 0.51 mm 40 W/m2
09:14 10.3 °C 9.7 °C 1006.7 hPa Calm   1.6 km/h 96% 0.51 mm 46 W/m2
09:19 10.3 °C 9.7 °C 1006.7 hPa NW 0.2 km/h 3.2 km/h 96% 0.51 mm 39 W/m2
09:24 10.4 °C 9.8 °C 1006 hPa NW 0.2 km/h 3.2 km/h 96% 0.51 mm 37 W/m2
09:29 10.4 °C 9.8 °C 1005.6 hPa NNW 0.3 km/h 4.8 km/h 96% 0.76 mm 60 W/m2
09:34 10.5 °C 9.9 °C 1006 hPa NNW 0.3 km/h 4.8 km/h 96% 0.76 mm 56 W/m2
09:39 10.6 °C 9.9 °C 1006 hPa Calm   4.8 km/h 96% 0.76 mm 58 W/m2
09:44 10.6 °C 10 °C 1006 hPa ENE 0.6 km/h 8 km/h 96% 0.76 mm 46 W/m2
09:49 10.7 °C 10.1 °C 1006.3 hPa Calm   8 km/h 96% 0.76 mm 49 W/m2
09:54 10.7 °C 10.1 °C 1006.3 hPa NW 0.3 km/h 8 km/h 96% 0.76 mm 54 W/m2
09:59 10.8 °C 10.2 °C 1005.6 hPa Calm   8 km/h 96% 0.76 mm 118 W/m2
10:04 10.9 °C 10.3 °C 1005 hPa NNE 0.3 km/h 8 km/h 96% 0.76 mm 163 W/m2
10:09 10.9 °C 10.3 °C 1005.6 hPa Calm   6.4 km/h 96% 0.25 mm 148 W/m2
10:14 11 °C 10.6 °C 1006 hPa ENE 0.2 km/h 6.4 km/h 97% 0.25 mm 47 W/m2
10:19 11.1 °C 10.6 °C 1006.7 hPa Calm   6.4 km/h 97% 0.25 mm 23 W/m2
10:24 11.1 °C 10.6 °C 1007 hPa Calm   6.4 km/h 96.8% 0.25 mm 33 W/m2
10:29 11.2 °C 10.6 °C 1007 hPa Calm   6.4 km/h 96% 0.25 mm 47 W/m2
10:34 11.2 °C 10.6 °C 1007 hPa Calm   6.4 km/h 96% 0.25 mm 51 W/m2
10:39 11.3 °C 10.7 °C 1007 hPa Calm     96% 0 mm 33 W/m2
10:44 11.3 °C 10.8 °C 1006.7 hPa Calm     96.8% 0 mm 49 W/m2
10:49 11.4 °C 10.9 °C 1006.7 hPa Calm   3.2 km/h 97% 0 mm 53 W/m2
10:54 11.4 °C 11 °C 1006.7 hPa Calm   3.2 km/h 97% 0 mm 47 W/m2
10:59 11.5 °C 11 °C 1006.3 hPa Calm   3.2 km/h 96.9% 0 mm 69 W/m2
11:04 11.5 °C 10.9 °C 1006.3 hPa NNW 0.3 km/h 8 km/h 96% 0 mm 69 W/m2
11:09 11.6 °C 10.9 °C 1006.3 hPa North 0.3 km/h 8 km/h 96% 0 mm 49 W/m2
11:14 11.6 °C 10.9 °C 1006.3 hPa Calm   8 km/h 96% 0 mm 53 W/m2
11:19 11.6 °C 11 °C 1006.3 hPa Calm   8 km/h 96% 0 mm 62 W/m2
11:24 11.7 °C 11.1 °C 1006 hPa Calm   8 km/h 96.1% 0 mm 67 W/m2
11:29 11.7 °C 11.2 °C 1005.6 hPa NNW 0.6 km/h 8 km/h 97% 0 mm 111 W/m2
11:34 11.8 °C 11.4 °C 1005.3 hPa NNW 0.3 km/h 9.7 km/h 97% 0 mm 111 W/m2
11:39 11.9 °C 11.5 °C 1005 hPa NNW 0.2 km/h 9.7 km/h 97% 0 mm 128 W/m2
11:44 12.1 °C 11.6 °C 1004.6 hPa NNW 0.3 km/h 9.7 km/h 97% 0 mm 109 W/m2
11:49 12.2 °C 11.7 °C 1004.6 hPa North 0.2 km/h 9.7 km/h 97% 0 mm 139 W/m2
11:54 12.3 °C 11.8 °C 1004.3 hPa NNE 0.3 km/h 9.7 km/h 97% 0 mm 153 W/m2
11:59 12.3 °C 11.9 °C 1004.3 hPa Calm   9.7 km/h 97% 0 mm 113 W/m2
12:00 12.4 °C 11.9 °C 1004.3 hPa Calm   9.7 km/h 97% 0 mm 111 W/m2
12:09 12.6 °C 12.1 °C 1004.3 hPa NNW 0.2 km/h 3.2 km/h 97% 0 mm 156 W/m2
12:14 12.7 °C 12.2 °C 1003.9 hPa Calm   3.2 km/h 97% 0 mm 113 W/m2
12:19 12.8 °C 12.3 °C 1004.3 hPa Calm   3.2 km/h 97% 0 mm 100 W/m2
12:24 12.8 °C 12.4 °C 1004.3 hPa Calm   3.2 km/h 97% 0 mm 69 W/m2
12:29 12.9 °C 12.4 °C 1004.6 hPa Calm   3.2 km/h 97% 0 mm 54 W/m2
12:34 12.9 °C 12.4 °C 1005 hPa Calm   3.2 km/h 97% 0 mm 37 W/m2
12:38 12.9 °C 12.4 °C 1005 hPa Calm     97% 0.25 mm 46 W/m2
12:44 12.9 °C 12.4 °C 1005 hPa Calm     97% 0.51 mm 104 W/m2
12:49 13 °C 12.6 °C 1004.6 hPa Calm     97% 0.51 mm 125 W/m2
12:54 13.1 °C 12.6 °C 1004.6 hPa Calm     97% 0.76 mm 105 W/m2
12:59 13.2 °C 12.7 °C 1004.6 hPa Calm     97% 0.76 mm 77 W/m2
13:04 13.2 °C 12.7 °C 1005 hPa Calm     97% 0.76 mm 40 W/m2
13:09 13.2 °C 12.7 °C 1005.3 hPa Calm     97% 1.02 mm 28 W/m2
13:14 13.2 °C 12.7 °C 1005.3 hPa North 0.2 km/h 3.2 km/h 97% 1.27 mm 56 W/m2
13:19 13.2 °C 12.8 °C 1005 hPa Calm   3.2 km/h 97% 1.52 mm 76 W/m2
13:24 13.2 °C 12.8 °C 1004.6 hPa Calm   3.2 km/h 97% 1.52 mm 90 W/m2
13:29 13.3 °C 12.8 °C 1004.6 hPa Calm   3.2 km/h 97% 1.78 mm 100 W/m2
13:34 13.3 °C 12.8 °C 1004.3 hPa Calm   3.2 km/h 97% 1.78 mm 113 W/m2
13:39 13.4 °C 12.9 °C 1004.3 hPa Calm     97% 2.03 mm 69 W/m2
13:44 13.6 °C 13.1 °C 1004.3 hPa Calm     97% 2.03 mm 30 W/m2
13:48 13.6 °C 13.2 °C 1004.3 hPa Calm     97% 2.03 mm 47 W/m2
13:54 13.7 °C 13.2 °C 1003.9 hPa Calm     97% 2.03 mm 63 W/m2
13:59 13.7 °C 13.2 °C 1003.9 hPa Calm     97% 2.29 mm 67 W/m2
14:04 13.7 °C 13.3 °C 1004.3 hPa Calm     97% 2.29 mm 40 W/m2
14:09 13.7 °C 13.3 °C 1004.3 hPa Calm     97% 1.78 mm 65 W/m2
14:14 13.8 °C 13.3 °C 1004.3 hPa Calm     97% 2.03 mm 65 W/m2
14:19 13.8 °C 13.3 °C 1004.3 hPa Calm     97% 2.29 mm 51 W/m2
14:24 13.8 °C 13.4 °C 1004.3 hPa Calm     97% 2.29 mm 54 W/m2
14:29 13.9 °C 13.4 °C 1004.3 hPa Calm     97% 2.54 mm 44 W/m2
14:34 13.9 °C 13.5 °C 1004.3 hPa Calm     97% 2.54 mm 39 W/m2
14:39 14 °C 13.5 °C 1003.9 hPa Calm     97% 1.78 mm 60 W/m2
14:44 14 °C 13.6 °C 1003.6 hPa Calm     97% 2.03 mm 54 W/m2
14:49 14.1 °C 13.6 °C 1003.6 hPa Calm     97% 2.29 mm 42 W/m2
14:54 14.1 °C 13.6 °C 1003.6 hPa Calm     97% 2.29 mm 51 W/m2
14:59 14.1 °C 13.7 °C 1004.3 hPa Calm     97% 2.54 mm 42 W/m2
15:04 14.1 °C 13.7 °C 1004.3 hPa Calm     97% 2.54 mm 26 W/m2
15:09 14.2 °C 13.7 °C 1004.3 hPa Calm     97% 2.29 mm 30 W/m2
15:14 14.2 °C 13.8 °C 1004.3 hPa Calm     97% 2.54 mm 28 W/m2
15:19 14.2 °C 13.8 °C 1003.9 hPa Calm   1.6 km/h 97% 3.05 mm 21 W/m2
15:24 14.2 °C 13.8 °C 1003.6 hPa ESE 0.2 km/h 6.4 km/h 97% 3.3 mm 63 W/m2
15:29 14.2 °C 13.7 °C 1003.9 hPa Calm   6.4 km/h 97% 3.56 mm 63 W/m2
15:34 14.2 °C 13.7 °C 1003.9 hPa Calm   6.4 km/h 97% 3.56 mm 28 W/m2
15:39 14.2 °C 13.7 °C 1003.9 hPa Calm     97% 3.05 mm 30 W/m2
15:44 14.2 °C 13.7 °C 1003.9 hPa ENE 0.2 km/h 3.2 km/h 97% 3.3 mm 40 W/m2
15:49 14.1 °C 13.6 °C 1003.9 hPa Calm   3.2 km/h 97% 3.56 mm 32 W/m2
15:54 14 °C 13.5 °C 1003.9 hPa Calm   3.2 km/h 97% 3.81 mm 26 W/m2
15:59 13.9 °C 13.4 °C 1003.9 hPa Calm   3.2 km/h 97% 3.81 mm 30 W/m2
16:00 13.9 °C 13.4 °C 1003.9 hPa Calm   3.2 km/h 97% 3.81 mm 26 W/m2
16:09 13.9 °C 13.4 °C 1004.3 hPa Calm     97% 4.57 mm 37 W/m2
16:14 13.9 °C 13.4 °C 1004.3 hPa Calm     97% 5.08 mm 33 W/m2
16:19 13.9 °C 13.5 °C 1004.3 hPa Calm     97% 5.59 mm 18 W/m2
16:24 14 °C 13.5 °C 1004.3 hPa Calm     97% 5.84 mm 16 W/m2
16:29 14 °C 13.6 °C 1004.3 hPa Calm     97% 6.1 mm 16 W/m2
16:34 14 °C 13.6 °C 1003.9 hPa Calm     97% 6.1 mm 18 W/m2
16:39 14 °C 13.6 °C 1003.9 hPa Calm     97% 3.81 mm 32 W/m2
16:44 14 °C 13.6 °C 1003.9 hPa Calm     97% 3.81 mm 33 W/m2
16:49 14.1 °C 13.6 °C 1003.9 hPa Calm     97% 4.06 mm 11 W/m2
16:54 14 °C 13.6 °C 1003.9 hPa Calm     97% 4.06 mm 5 W/m2
16:59 14 °C 13.6 °C 1003.9 hPa Calm     97% 4.06 mm 0 W/m2
17:04 14 °C 13.6 °C 1003.9 hPa Calm     97% 4.06 mm 0 W/m2
17:09 14 °C 13.6 °C 1003.9 hPa Calm     97% 0.76 mm 0 W/m2
17:14 14 °C 13.5 °C 1003.6 hPa Calm     97% 0.76 mm 5 W/m2
17:19 13.9 °C 13.5 °C 1003.6 hPa Calm     97% 0.76 mm 5 W/m2
17:24 13.9 °C 13.5 °C 1003.6 hPa Calm     97% 0.76 mm 0 W/m2
17:29 13.9 °C 13.5 °C 1003.6 hPa Calm     97% 0.76 mm 0 W/m2
17:34 13.9 °C 13.5 °C 1003.6 hPa Calm     97% 0.76 mm 0 W/m2
17:39 13.9 °C 13.5 °C 1003.6 hPa Calm     97% 0.76 mm 0 W/m2
17:44 13.9 °C 13.4 °C 1003.3 hPa Calm     97% 0.76 mm 0 W/m2
17:49 13.9 °C 13.4 °C 1003.3 hPa Calm     97% 0.76 mm 0 W/m2
17:54 13.9 °C 13.4 °C 1003.3 hPa Calm     97% 1.02 mm 0 W/m2
17:59 13.8 °C 13.4 °C 1003.6 hPa Calm     97% 1.02 mm 0 W/m2
18:04 13.8 °C 13.4 °C 1003.6 hPa Calm     97% 1.02 mm 0 W/m2
18:09 13.8 °C 13.4 °C 1003.6 hPa Calm     97% 1.27 mm 0 W/m2
18:14 13.8 °C 13.4 °C 1003.6 hPa Calm     97% 1.52 mm 0 W/m2
18:19 13.8 °C 13.4 °C 1003.6 hPa Calm     97% 1.78 mm 0 W/m2
18:24 13.8 °C 13.4 °C 1003.3 hPa Calm     97% 1.78 mm 0 W/m2
18:29 13.8 °C 13.4 °C 1003.3 hPa Calm     97% 1.78 mm 0 W/m2
18:34 13.8 °C 13.4 °C 1002.9 hPa Calm     97% 1.78 mm 0 W/m2
18:39 13.8 °C 13.4 °C 1002.6 hPa Calm     97% 1.52 mm 0 W/m2
18:44 13.8 °C 13.4 °C 1002.6 hPa Calm     97% 1.52 mm 0 W/m2
18:49 13.9 °C 13.4 °C 1002.6 hPa ENE 0.2 km/h 4.8 km/h 97% 1.52 mm 0 W/m2
18:54 13.9 °C 13.4 °C 1002.3 hPa Calm   4.8 km/h 97% 1.52 mm 0 W/m2
18:59 13.9 °C 13.5 °C 1002.3 hPa Calm   4.8 km/h 97% 1.52 mm 0 W/m2
19:04 14 °C 13.6 °C 1002.3 hPa Calm   4.8 km/h 97% 1.52 mm 0 W/m2
19:09 14 °C 13.6 °C 1002.3 hPa ENE 0.2 km/h 3.2 km/h 97% 1.27 mm 0 W/m2
19:14 14.1 °C 13.6 °C 1002.3 hPa Calm   3.2 km/h 97% 1.27 mm 0 W/m2
19:19 14.1 °C 13.6 °C 1002.3 hPa Calm   3.2 km/h 97% 1.27 mm 0 W/m2
19:24 14.1 °C 13.6 °C 1002.3 hPa Calm   3.2 km/h 97% 1.27 mm 0 W/m2
19:29 14.1 °C 13.6 °C 1002.3 hPa Calm   3.2 km/h 97% 1.27 mm 0 W/m2
19:34 14.2 °C 13.7 °C 1001.9 hPa ENE 0.2 km/h 4.8 km/h 97% 1.27 mm 0 W/m2
19:39 14.2 °C 13.7 °C 1001.9 hPa ENE 2.1 km/h 8 km/h 97% 0 mm 0 W/m2
19:44 14.2 °C 13.8 °C 1001.9 hPa ENE 0.6 km/h 8 km/h 97% 0.25 mm 0 W/m2
19:49 14.2 °C 13.8 °C 1001.6 hPa ENE 1.1 km/h 8 km/h 97% 0.25 mm 0 W/m2
19:54 14.3 °C 13.8 °C 1001.6 hPa Calm   8 km/h 97% 0.25 mm 0 W/m2
19:59 14.3 °C 13.8 °C 1001.9 hPa Calm   8 km/h 97% 0.25 mm 0 W/m2
20:00 14.3 °C 13.8 °C 1001.6 hPa Calm   8 km/h 97% 0.25 mm 0 W/m2
20:09 14.3 °C 13.9 °C 1001.9 hPa Calm     97% 0.25 mm 0 W/m2
20:14 14.3 °C 13.9 °C 1001.9 hPa Calm     97% 0.25 mm 0 W/m2
20:19 14.4 °C 13.9 °C 1001.9 hPa ENE 0.2 km/h 1.6 km/h 97% 0.25 mm 0 W/m2
20:24 14.5 °C 14.1 °C 1001.9 hPa Calm   1.6 km/h 97% 0.25 mm 0 W/m2
20:29 14.7 °C 14.2 °C 1001.9 hPa Calm   1.6 km/h 97% 0.25 mm 0 W/m2
20:34 14.8 °C 14.4 °C 1001.9 hPa ENE 0.3 km/h 4.8 km/h 97% 0.25 mm 0 W/m2
20:39 14.9 °C 14.4 °C 1001.9 hPa Calm   4.8 km/h 97% 0.25 mm 0 W/m2
20:44 14.9 °C 14.4 °C 1001.9 hPa Calm   4.8 km/h 97% 0.25 mm 0 W/m2
20:49 15 °C 14.5 °C 1001.6 hPa Calm   4.8 km/h 97% 0.25 mm 0 W/m2
20:54 15.1 °C 14.6 °C 1001.6 hPa Calm   4.8 km/h 97% 0.25 mm 0 W/m2
20:59 15 °C 14.6 °C 1001.2 hPa Calm   4.8 km/h 97% 0.25 mm 0 W/m2
21:04 14.9 °C 14.4 °C 1001.2 hPa Calm   4.8 km/h 97% 0.25 mm 0 W/m2
21:09 14.8 °C 14.3 °C 1001.2 hPa Calm     97% 0 mm 0 W/m2
21:14 14.7 °C 14.3 °C 1000.9 hPa Calm     97% 0 mm 0 W/m2
21:19 14.7 °C 14.2 °C 1000.6 hPa ENE 0.2 km/h 3.2 km/h 97% 0 mm 0 W/m2
21:24 14.7 °C 14.2 °C 1000.9 hPa Calm   3.2 km/h 97% 0 mm 0 W/m2
21:29 14.7 °C 14.2 °C 1000.9 hPa Calm   3.2 km/h 97% 0 mm 0 W/m2
21:34 14.7 °C 14.3 °C 1001.2 hPa Calm   3.2 km/h 97% 0 mm 0 W/m2
21:39 14.7 °C 14.3 °C 1001.2 hPa NE 0.2 km/h 1.6 km/h 97% 0 mm 0 W/m2
21:44 14.7 °C 14.3 °C 1001.2 hPa Calm   1.6 km/h 97% 0 mm 0 W/m2
21:49 14.7 °C 14.2 °C 1001.2 hPa Calm   1.6 km/h 97% 0 mm 0 W/m2
21:54 14.7 °C 14.2 °C 1001.2 hPa NE 0.3 km/h 6.4 km/h 97% 0 mm 0 W/m2
21:59 14.7 °C 14.2 °C 1001.2 hPa Calm   6.4 km/h 97% 0 mm 0 W/m2
22:04 14.6 °C 14.2 °C 1000.9 hPa NE 0.2 km/h 6.4 km/h 97% 0 mm 0 W/m2
22:09 14.6 °C 14.2 °C 1000.9 hPa NE 0.6 km/h 6.4 km/h 97% 0 mm 0 W/m2
22:14 14.6 °C 14.1 °C 1000.9 hPa North 1.4 km/h 8 km/h 97% 0 mm 0 W/m2
22:19 14.6 °C 14.1 °C 1000.6 hPa NW 0.8 km/h 8 km/h 97% 0 mm 0 W/m2
22:24 14.6 °C 14.1 °C 1000.6 hPa NW 0.6 km/h 8 km/h 97% 0 mm 0 W/m2
22:29 14.5 °C 14.1 °C 1000.2 hPa NW 0.3 km/h 8 km/h 97% 0 mm 0 W/m2
22:34 14.5 °C 14.1 °C 999.9 hPa NNW 2.1 km/h 8 km/h 97% 0 mm 0 W/m2
22:39 14.5 °C 14 °C 999.9 hPa NNW 0.8 km/h 8 km/h 97% 0 mm 0 W/m2
22:44 14.6 °C 14.1 °C 999.9 hPa NW 0.3 km/h 9.7 km/h 97% 0 mm 0 W/m2
22:49 14.6 °C 14.1 °C 999.5 hPa Calm   9.7 km/h 97% 0.25 mm 0 W/m2
22:54 14.6 °C 14.1 °C 999.5 hPa NW 1.3 km/h 9.7 km/h 97% 0.25 mm 0 W/m2
22:59 14.6 °C 14.1 °C 999.5 hPa Calm   9.7 km/h 97% 0.25 mm 0 W/m2
23:04 14.6 °C 14.1 °C 999.5 hPa NW 1.9 km/h 11.3 km/h 97% 0.25 mm 0 W/m2
23:09 14.6 °C 14.1 °C 999.5 hPa NW 0.3 km/h 11.3 km/h 97% 0.25 mm 0 W/m2
23:14 14.6 °C 14.1 °C 999.5 hPa NW 0.3 km/h 11.3 km/h 97% 0.25 mm 0 W/m2
23:19 14.5 °C 14.1 °C 999.2 hPa NW 0.2 km/h 11.3 km/h 97% 0.25 mm 0 W/m2
23:24 14.4 °C 14 °C 999.2 hPa NW 0.2 km/h 11.3 km/h 97% 0.25 mm 0 W/m2
23:29 14.4 °C 13.9 °C 999.2 hPa Calm   11.3 km/h 97% 0.25 mm 0 W/m2
23:34 14.3 °C 13.9 °C 999.2 hPa Calm   11.3 km/h 97% 0.25 mm 0 W/m2
23:39 14.3 °C 13.9 °C 999.2 hPa Calm   3.2 km/h 97% 0.25 mm 0 W/m2
23:44 14.3 °C 13.8 °C 999.2 hPa NW 0.5 km/h 4.8 km/h 97% 0.25 mm 0 W/m2
23:49 14.3 °C 13.8 °C 999.2 hPa Calm   4.8 km/h 97% 0.25 mm 0 W/m2
23:54 14.2 °C 13.8 °C 998.9 hPa NW 1.6 km/h 8 km/h 97% 0.25 mm 0 W/m2
23:59 14.2 °C 13.7 °C 998.9 hPa NNW 1.1 km/h 9.7 km/h 97% 0.25 mm 0 W/m2
Hartford County Weather
Compliments of Weather Underground - 2 mb